Time;durP1;ratioP1;P1;durP2;ratioP2;P2;SDS_P1;SDS_P2;PMS_P1;PMS_P2;Temp;Humidity;BMP_temperature;BMP_pressure;BME280_temperature;BME280_humidity;BME280_pressure;Samples;Min_cycle;Max_cycle;Signal;HPM_P1;HPM_P2
2022/08/03 00:01:58;;;;;;;2.03;1.83;;;20.90;99.30;;;;;;4953838;29;20177;-88
2022/08/03 00:04:24;;;;;;;7.20;1.70;;;20.90;99.40;;;;;;4953779;28;20275;-87
2022/08/03 00:06:50;;;;;;;2.25;1.67;;;20.90;99.40;;;;;;4953818;28;20212;-88
2022/08/03 00:09:16;;;;;;;3.15;2.00;;;20.80;99.30;;;;;;4953648;29;20180;-87
2022/08/03 00:11:41;;;;;;;2.08;1.63;;;20.80;99.50;;;;;;4953662;29;20637;-88
2022/08/03 00:14:08;;;;;;;2.50;1.80;;;20.80;99.60;;;;;;4953498;29;20212;-87
2022/08/03 00:16:33;;;;;;;2.17;1.67;;;20.80;99.50;;;;;;4954042;29;20297;-89
2022/08/03 00:19:00;;;;;;;2.33;1.80;;;20.70;99.50;;;;;;4953941;29;20730;-88
2022/08/03 00:21:26;;;;;;;3.20;1.75;;;20.70;99.60;;;;;;4953734;28;20240;-89
2022/08/03 00:23:52;;;;;;;5.15;2.05;;;20.60;99.60;;;;;;4953897;29;20263;-88
2022/08/03 00:26:19;;;;;;;2.13;1.67;;;20.60;99.70;;;;;;4953441;29;20328;-88
2022/08/03 00:28:45;;;;;;;5.72;1.95;;;20.60;99.80;;;;;;4954421;28;20260;-88
2022/08/03 00:31:11;;;;;;;5.80;2.20;;;20.50;99.90;;;;;;4953142;28;20277;-89
2022/08/03 00:33:37;;;;;;;3.97;2.10;;;20.50;99.90;;;;;;4953425;29;20252;-88
2022/08/03 00:36:03;;;;;;;2.20;1.98;;;20.40;99.90;;;;;;4953328;28;20189;-90
2022/08/03 00:38:29;;;;;;;3.50;2.10;;;20.30;99.90;;;;;;4953332;29;20173;-88
2022/08/03 00:40:55;;;;;;;2.17;1.90;;;20.20;99.90;;;;;;4953163;29;20193;-88
2022/08/03 00:43:25;;;;;;;3.92;2.30;;;20.20;99.90;;;;;;4952666;29;20252;-87
2022/08/03 00:45:51;;;;;;;3.78;1.85;;;20.20;99.90;;;;;;4952855;29;20201;-88
2022/08/03 00:48:17;;;;;;;4.68;2.08;;;20.10;99.90;;;;;;4953057;28;20544;-88
2022/08/03 00:50:43;;;;;;;3.17;2.25;;;20.10;99.90;;;;;;4953022;29;20185;-88
2022/08/03 00:53:12;;;;;;;3.53;2.00;;;20.00;99.90;;;;;;4954307;28;20158;-88
2022/08/03 00:55:40;;;;;;;4.70;2.00;;;19.90;99.90;;;;;;4953447;29;20627;-88
2022/08/03 00:58:07;;;;;;;2.10;1.88;;;19.90;99.90;;;;;;4954342;29;20696;-88
2022/08/03 01:00:37;;;;;;;2.08;1.90;;;19.90;99.90;;;;;;4952453;29;20181;-88
2022/08/03 01:03:04;;;;;;;7.88;2.10;;;19.80;99.90;;;;;;4953042;29;20161;-88
2022/08/03 01:05:56;;;;;;;5.28;2.03;;;19.80;99.90;;;;;;4954212;28;20173;-88
2022/08/03 01:08:25;;;;;;;3.00;1.90;;;19.80;99.90;;;;;;4944071;29;20201;-88
2022/08/03 01:11:22;;;;;;;4.38;2.15;;;19.80;99.90;;;;;;4952195;29;20188;-89
2022/08/03 01:14:07;;;;;;;3.00;1.90;;;19.80;99.90;;;;;;4952937;29;20617;-88
2022/08/03 01:16:41;;;;;;;2.65;2.10;;;19.70;99.90;;;;;;4953745;29;20697;-88
2022/08/03 01:19:39;;;;;;;4.72;1.85;;;19.70;99.90;;;;;;4952221;28;20210;-88
2022/08/03 01:22:08;;;;;;;2.58;1.88;;;19.70;99.90;;;;;;4952426;29;20185;-88
2022/08/03 01:24:36;;;;;;;2.75;2.20;;;19.70;99.90;;;;;;4952214;29;20181;-89
2022/08/03 01:27:11;;;;;;;2.17;1.98;;;19.70;99.90;;;;;;4952138;28;20324;-88
2022/08/03 01:29:57;;;;;;;2.25;2.00;;;19.70;99.90;;;;;;4951826;29;20539;-88
2022/08/03 01:32:50;;;;;;;2.60;1.95;;;19.70;99.90;;;;;;4952982;28;20181;-88
2022/08/03 01:35:48;;;;;;;3.72;2.08;;;19.70;99.90;;;;;;4937054;28;20237;-89
2022/08/03 01:38:23;;;;;;;6.57;2.15;;;19.70;99.90;;;;;;4949381;28;20220;-88
2022/08/03 01:40:52;;;;;;;9.43;2.20;;;19.70;99.90;;;;;;4953095;29;20700;-88
2022/08/03 01:43:20;;;;;;;2.65;2.13;;;19.60;99.90;;;;;;4951792;29;20580;-88
2022/08/03 01:45:47;;;;;;;6.20;2.15;;;19.50;99.90;;;;;;4952131;29;20209;-87
2022/08/03 01:48:16;;;;;;;2.35;2.10;;;19.50;99.90;;;;;;4952237;29;20708;-87
2022/08/03 01:50:44;;;;;;;3.83;2.00;;;19.40;99.90;;;;;;4951967;29;20188;-87
2022/08/03 01:53:13;;;;;;;2.17;1.90;;;19.50;99.90;;;;;;4951993;29;20208;-88
2022/08/03 01:55:40;;;;;;;6.40;2.35;;;19.40;99.90;;;;;;4953353;28;20170;-88
2022/08/03 01:58:07;;;;;;;3.92;2.20;;;19.40;99.90;;;;;;4953161;28;20292;-88
2022/08/03 02:00:37;;;;;;;3.00;2.20;;;19.40;99.90;;;;;;4951393;28;20267;-87
2022/08/03 02:03:08;;;;;;;2.15;1.92;;;19.40;99.90;;;;;;4934041;29;20170;-89
2022/08/03 02:05:35;;;;;;;2.10;1.90;;;19.40;99.90;;;;;;4939206;29;20268;-89
2022/08/03 02:08:03;;;;;;;5.43;2.13;;;19.40;99.90;;;;;;4951589;28;20205;-89
2022/08/03 02:10:31;;;;;;;1.98;1.88;;;19.30;99.90;;;;;;4952871;28;20236;-87
2022/08/03 02:13:01;;;;;;;2.65;2.10;;;19.30;99.90;;;;;;4951910;29;20173;-88
2022/08/03 02:15:28;;;;;;;3.08;2.05;;;19.30;99.90;;;;;;4951754;29;20209;-88
2022/08/03 02:17:56;;;;;;;2.20;2.00;;;19.30;99.90;;;;;;4951768;29;20237;-89
2022/08/03 02:20:24;;;;;;;3.55;2.00;;;19.30;99.90;;;;;;4951796;29;20180;-88
2022/08/03 02:22:49;;;;;;;2.10;1.90;;;19.40;99.90;;;;;;4951125;28;20185;-89
2022/08/03 02:25:16;;;;;;;3.55;2.15;;;19.40;99.90;;;;;;4951651;29;20178;-89
2022/08/03 02:28:03;;;;;;;2.05;1.85;;;19.30;99.90;;;;;;4951679;29;20585;-88
2022/08/03 02:30:38;;;;;;;2.35;2.00;;;19.30;99.90;;;;;;4952085;28;20181;-87
2022/08/03 02:33:08;;;;;;;2.65;1.92;;;19.30;99.90;;;;;;4955624;29;20235;-87
2022/08/03 02:35:35;;;;;;;3.30;2.03;;;19.40;99.90;;;;;;4955236;29;20644;-88
2022/08/03 02:38:06;;;;;;;2.17;1.80;;;19.30;99.90;;;;;;4955848;28;20205;-88
2022/08/03 02:40:32;;;;;;;2.80;2.00;;;19.30;99.90;;;;;;4955252;29;20189;-88
2022/08/03 02:43:09;;;;;;;2.90;2.00;;;19.40;99.90;;;;;;4956022;28;20181;-88
2022/08/03 02:45:41;;;;;;;3.55;2.22;;;19.30;99.90;;;;;;4958621;28;20648;-88
2022/08/03 02:48:08;;;;;;;4.85;2.00;;;19.30;99.90;;;;;;4958654;28;20204;-89
2022/08/03 02:50:35;;;;;;;2.78;2.10;;;19.30;99.90;;;;;;4958660;28;20606;-89
2022/08/03 02:53:02;;;;;;;3.10;1.83;;;19.20;99.90;;;;;;4958291;28;20181;-89
2022/08/03 02:55:28;;;;;;;2.35;2.05;;;19.20;99.90;;;;;;4958123;28;20180;-87
2022/08/03 02:57:56;;;;;;;2.00;1.80;;;19.20;99.90;;;;;;4958026;28;20291;-88
2022/08/03 03:00:22;;;;;;;5.63;1.83;;;19.20;99.90;;;;;;4964390;28;20240;-88
2022/08/03 03:02:50;;;;;;;2.25;2.05;;;19.20;99.90;;;;;;4958282;28;20711;-88
2022/08/03 03:05:16;;;;;;;3.13;2.00;;;19.20;99.90;;;;;;4957878;28;20197;-90
2022/08/03 03:07:43;;;;;;;3.58;2.28;;;19.20;99.90;;;;;;4958588;28;20259;-88
2022/08/03 03:10:10;;;;;;;2.47;2.00;;;19.20;99.90;;;;;;4958565;28;20184;-88
2022/08/03 03:12:39;;;;;;;2.28;1.77;;;19.10;99.90;;;;;;4958552;28;20670;-89
2022/08/03 03:15:05;;;;;;;5.35;2.30;;;19.10;99.90;;;;;;4958433;28;20181;-87
2022/08/03 03:17:33;;;;;;;2.53;2.00;;;19.00;99.90;;;;;;4958132;28;20200;-88
2022/08/03 03:20:00;;;;;;;3.97;2.10;;;18.90;99.90;;;;;;4957755;28;20184;-88
2022/08/03 03:22:27;;;;;;;4.30;2.10;;;18.90;99.90;;;;;;4958212;28;20196;-89
2022/08/03 03:24:54;;;;;;;2.20;1.98;;;18.90;99.90;;;;;;4957981;28;20173;-88
2022/08/03 03:27:20;;;;;;;6.10;2.15;;;18.80;99.90;;;;;;4957271;28;20278;-89
2022/08/03 03:29:48;;;;;;;2.60;2.00;;;18.80;99.90;;;;;;4975280;28;20211;-88
2022/08/03 03:32:14;;;;;;;3.28;1.90;;;18.80;99.90;;;;;;4974971;28;20581;-87
2022/08/03 03:34:41;;;;;;;2.30;2.05;;;18.70;99.90;;;;;;4957782;28;20177;-88
2022/08/03 03:37:07;;;;;;;3.42;2.10;;;18.70;99.90;;;;;;4938670;29;20209;-88
2022/08/03 03:39:32;;;;;;;2.40;1.92;;;18.70;99.90;;;;;;4941481;28;20183;-88
2022/08/03 03:41:59;;;;;;;2.35;1.90;;;18.70;99.90;;;;;;4957736;28;20689;-88
2022/08/03 03:44:29;;;;;;;2.83;2.17;;;18.70;99.90;;;;;;4974613;28;20267;-87
2022/08/03 03:46:56;;;;;;;1.90;1.80;;;18.70;99.90;;;;;;4957409;28;20220;-88
2022/08/03 03:49:22;;;;;;;2.40;2.20;;;18.60;99.90;;;;;;4957427;28;20177;-88
2022/08/03 03:51:52;;;;;;;2.95;2.20;;;18.60;99.90;;;;;;4974598;28;20236;-88
2022/08/03 03:54:18;;;;;;;2.63;2.10;;;18.60;99.90;;;;;;4957653;28;20180;-88
2022/08/03 03:56:43;;;;;;;2.70;2.10;;;18.50;99.90;;;;;;4957217;28;20755;-88
2022/08/03 03:59:09;;;;;;;3.83;2.00;;;18.50;99.90;;;;;;4957286;28;20184;-88
2022/08/03 04:01:35;;;;;;;3.53;2.05;;;18.60;99.90;;;;;;4957073;28;20266;-88
2022/08/03 04:10:57;;;;;;;2.45;2.10;;;18.50;99.90;;;;;;4956977;28;20185;-88
2022/08/03 04:12:21;;;;;;;3.03;2.00;;;18.50;99.90;;;;;;4974767;28;20203;-89
2022/08/03 04:14:48;;;;;;;2.72;1.80;;;18.50;99.90;;;;;;4957047;28;20224;-88
2022/08/03 04:17:15;;;;;;;2.35;2.10;;;18.50;99.90;;;;;;4957236;28;20595;-88
2022/08/03 04:19:51;;;;;;;2.03;1.77;;;18.60;99.90;;;;;;4957047;28;20200;-89
2022/08/03 04:22:21;;;;;;;2.78;1.90;;;18.50;99.90;;;;;;4956772;28;20513;-87
2022/08/03 04:24:58;;;;;;;4.70;2.33;;;18.50;99.90;;;;;;4957183;28;20264;-88
2022/08/03 04:27:30;;;;;;;5.65;2.20;;;18.50;99.90;;;;;;4956874;28;20216;-87
2022/08/03 04:29:58;;;;;;;2.15;1.90;;;18.50;99.90;;;;;;4957247;28;20265;-89
2022/08/03 04:32:27;;;;;;;3.55;2.00;;;18.50;99.90;;;;;;4956570;28;20181;-88
2022/08/03 04:34:53;;;;;;;3.83;2.00;;;18.60;99.90;;;;;;4956524;28;20259;-89
2022/08/03 04:37:42;;;;;;;4.22;1.98;;;18.60;99.90;;;;;;4973467;28;20232;-88
2022/08/03 04:40:13;;;;;;;2.95;1.85;;;18.60;99.90;;;;;;4955634;28;20180;-90
2022/08/03 04:42:40;;;;;;;2.85;1.67;;;18.70;99.90;;;;;;4956798;28;20204;-89
2022/08/03 04:45:10;;;;;;;2.15;1.95;;;18.70;99.90;;;;;;4956579;28;20238;-89
2022/08/03 04:47:37;;;;;;;2.55;2.05;;;18.70;99.90;;;;;;4956367;28;20700;-88
2022/08/03 04:50:05;;;;;;;8.50;2.05;;;18.80;99.90;;;;;;4955974;28;20208;-88
2022/08/03 04:52:32;;;;;;;6.47;2.17;;;18.80;99.90;;;;;;4956296;28;20231;-88
2022/08/03 04:54:58;;;;;;;2.13;1.90;;;18.90;99.90;;;;;;4956143;28;20581;-88
2022/08/03 04:57:24;;;;;;;3.58;2.15;;;18.90;99.90;;;;;;4956250;28;20215;-89
2022/08/03 04:59:54;;;;;;;3.22;2.00;;;18.90;99.90;;;;;;4956156;28;20226;-88
2022/08/03 05:02:20;;;;;;;2.67;1.80;;;19.00;99.90;;;;;;4973166;28;20200;-87
2022/08/03 05:04:47;;;;;;;2.63;2.00;;;19.10;99.90;;;;;;4956518;28;20530;-88
2022/08/03 05:07:14;;;;;;;2.35;1.80;;;19.10;99.90;;;;;;4973539;28;20200;-88
2022/08/03 05:09:40;;;;;;;3.58;1.70;;;19.20;99.90;;;;;;4956175;28;20192;-87
2022/08/03 05:12:06;;;;;;;5.47;2.03;;;19.20;99.90;;;;;;4956174;28;20176;-87
2022/08/03 05:14:32;;;;;;;3.83;1.98;;;19.30;99.90;;;;;;4956242;28;20176;-88
2022/08/03 05:16:59;;;;;;;2.38;1.80;;;19.40;99.90;;;;;;4973379;28;20201;-88
2022/08/03 05:19:25;;;;;;;4.30;2.17;;;19.40;99.90;;;;;;4956350;28;20198;-88
2022/08/03 05:21:51;;;;;;;1.95;1.77;;;19.50;99.90;;;;;;4955802;28;20659;-88
2022/08/03 05:24:17;;;;;;;3.35;1.90;;;19.50;99.90;;;;;;4955964;28;20624;-89
2022/08/03 05:26:43;;;;;;;3.63;2.10;;;19.60;99.90;;;;;;4955678;28;20643;-88
2022/08/03 05:29:08;;;;;;;2.55;1.70;;;19.60;99.90;;;;;;4955682;28;20625;-88
2022/08/03 05:31:34;;;;;;;2.38;1.83;;;19.70;99.90;;;;;;4952370;28;20181;-88
2022/08/03 05:34:00;;;;;;;2.55;1.80;;;19.80;99.90;;;;;;4945758;29;20169;-88
2022/08/03 05:36:26;;;;;;;4.90;2.13;;;19.90;99.90;;;;;;4943730;28;20225;-89
2022/08/03 05:38:52;;;;;;;2.75;1.98;;;19.90;99.90;;;;;;4955312;28;20223;-87
2022/08/03 05:41:18;;;;;;;3.97;2.08;;;20.00;99.90;;;;;;4955317;28;20188;-90
2022/08/03 05:43:44;;;;;;;2.65;1.95;;;20.00;99.90;;;;;;4952045;29;20268;-87
2022/08/03 05:46:10;;;;;;;2.47;1.80;;;20.10;99.90;;;;;;4951404;28;20212;-88
2022/08/03 05:48:36;;;;;;;2.63;2.10;;;20.10;99.90;;;;;;4952549;29;20189;-88
2022/08/03 05:51:05;;;;;;;2.55;1.92;;;20.20;99.90;;;;;;4935121;29;20193;-90
2022/08/03 05:53:34;;;;;;;2.17;1.98;;;20.30;99.90;;;;;;4943575;29;20177;-89
2022/08/03 05:56:00;;;;;;;1.98;1.77;;;20.30;99.90;;;;;;4952497;28;20605;-88
2022/08/03 05:58:26;;;;;;;1.60;1.50;;;20.40;99.90;;;;;;4952390;28;20192;-90
2022/08/03 06:00:52;;;;;;;2.10;1.70;;;20.50;99.90;;;;;;4952197;29;20199;-89
2022/08/03 06:03:18;;;;;;;2.83;1.60;;;20.70;99.90;;;;;;4953344;28;20205;-88
2022/08/03 06:05:44;;;;;;;4.05;1.67;;;20.70;99.90;;;;;;4951206;28;20194;-88
2022/08/03 06:08:10;;;;;;;3.22;1.50;;;20.90;99.90;;;;;;4951568;29;20201;-89
2022/08/03 06:10:37;;;;;;;2.20;1.70;;;21.00;99.90;;;;;;4952106;29;20215;-89
2022/08/03 06:13:03;;;;;;;2.38;1.52;;;21.00;99.70;;;;;;4952417;29;20753;-89
2022/08/03 06:15:32;;;;;;;3.10;1.85;;;21.20;99.50;;;;;;4942060;28;20189;-89
2022/08/03 06:17:58;;;;;;;2.15;1.60;;;21.30;99.10;;;;;;4951503;29;20240;-88
2022/08/03 06:20:24;;;;;;;2.20;1.67;;;21.40;98.80;;;;;;4951891;29;20177;-88
2022/08/03 06:22:50;;;;;;;2.88;1.70;;;21.50;98.50;;;;;;4951552;29;20181;-88
2022/08/03 06:25:16;;;;;;;3.70;1.60;;;21.60;97.80;;;;;;4952004;29;20177;-88
2022/08/03 06:27:42;;;;;;;2.35;1.90;;;21.70;97.80;;;;;;4951982;28;20232;-89
2022/08/03 06:30:10;;;;;;;1.65;1.55;;;21.90;97.80;;;;;;4952135;29;20224;-89
2022/08/03 06:32:37;;;;;;;3.53;1.50;;;21.90;98.10;;;;;;4952364;29;20170;-89
2022/08/03 06:35:05;;;;;;;4.65;1.60;;;22.00;97.70;;;;;;4952166;29;20169;-90
2022/08/03 06:37:30;;;;;;;2.25;1.58;;;22.20;97.10;;;;;;4951855;28;20205;-90
2022/08/03 06:39:56;;;;;;;3.10;1.60;;;22.30;97.00;;;;;;4952209;29;20217;-89
2022/08/03 06:42:22;;;;;;;3.00;1.67;;;22.40;96.60;;;;;;4951532;29;20300;-90
2022/08/03 06:44:48;;;;;;;2.22;1.83;;;22.50;96.00;;;;;;4951973;28;20228;-89
2022/08/03 06:47:13;;;;;;;3.90;1.88;;;22.60;95.80;;;;;;4951967;29;20231;-88
2022/08/03 06:49:40;;;;;;;2.85;1.83;;;22.70;95.50;;;;;;4951802;29;20200;-90
2022/08/03 06:52:06;;;;;;;5.78;2.50;;;22.80;95.60;;;;;;4951575;29;20188;-89
2022/08/03 06:54:31;;;;;;;3.50;2.17;;;22.80;95.70;;;;;;4951816;29;20629;-88
2022/08/03 06:56:57;;;;;;;4.05;2.25;;;23.00;95.90;;;;;;4951507;29;20205;-89
2022/08/03 06:59:23;;;;;;;4.95;2.67;;;23.00;95.70;;;;;;4951428;29;20180;-89
2022/08/03 07:01:49;;;;;;;6.95;2.38;;;23.20;95.50;;;;;;4951211;29;20260;-90
2022/08/03 07:04:15;;;;;;;4.95;2.40;;;23.30;95.40;;;;;;4951322;29;20212;-90
2022/08/03 07:06:40;;;;;;;4.63;2.60;;;23.50;95.30;;;;;;4951033;28;20685;-88
2022/08/03 07:09:06;;;;;;;6.20;2.67;;;23.60;95.00;;;;;;4951661;29;20175;-89
2022/08/03 07:11:32;;;;;;;5.45;2.50;;;23.70;94.70;;;;;;4951678;29;20212;-90
2022/08/03 07:13:57;;;;;;;5.05;2.28;;;23.90;94.50;;;;;;4951449;29;20197;-89
2022/08/03 07:16:23;;;;;;;4.13;2.80;;;24.00;94.40;;;;;;4953485;28;20238;-88
2022/08/03 07:18:49;;;;;;;5.40;3.00;;;24.10;94.00;;;;;;4955394;29;20174;-88
2022/08/03 07:21:15;;;;;;;5.53;2.63;;;24.20;94.10;;;;;;4954930;29;20178;-88
2022/08/03 07:23:41;;;;;;;8.57;2.60;;;24.20;93.80;;;;;;4953751;28;20661;-90
2022/08/03 07:26:07;;;;;;;6.57;2.72;;;24.20;93.90;;;;;;4954272;29;20209;-88
2022/08/03 07:28:33;;;;;;;7.18;3.25;;;24.20;93.30;;;;;;4954634;29;20169;-88
2022/08/03 07:30:58;;;;;;;11.80;2.83;;;24.30;93.90;;;;;;4955841;29;20196;-88
2022/08/03 07:33:24;;;;;;;5.93;2.97;;;24.40;93.70;;;;;;4956349;28;20297;-90
2022/08/03 07:35:50;;;;;;;9.48;2.83;;;24.50;93.30;;;;;;4954152;29;20233;-88
2022/08/03 07:38:16;;;;;;;4.68;2.80;;;24.70;93.20;;;;;;4953846;28;20291;-88
2022/08/03 07:40:42;;;;;;;5.75;2.72;;;24.80;93.00;;;;;;4954519;29;20192;-88
2022/08/03 07:43:08;;;;;;;8.75;3.15;;;25.00;94.00;;;;;;4956077;28;20197;-89
2022/08/03 07:45:33;;;;;;;6.00;2.97;;;25.10;94.10;;;;;;4957503;28;20180;-88
2022/08/03 07:48:00;;;;;;;8.63;2.75;;;25.20;92.80;;;;;;4957914;28;20332;-87
2022/08/03 07:50:25;;;;;;;5.13;2.95;;;25.30;92.70;;;;;;4951221;29;20377;-88
2022/08/03 07:52:54;;;;;;;4.50;2.75;;;25.40;92.80;;;;;;4938324;29;20548;-87
2022/08/03 07:55:25;;;;;;;6.43;2.78;;;25.50;92.40;;;;;;4938304;29;20181;-88
2022/08/03 07:58:06;;;;;;;7.18;3.00;;;25.60;93.30;;;;;;4948710;28;20671;-87
2022/08/03 08:00:33;;;;;;;5.72;2.47;;;25.80;92.60;;;;;;4952238;28;20684;-89
2022/08/03 08:02:58;;;;;;;5.45;2.35;;;25.90;93.10;;;;;;4957512;28;20176;-90
2022/08/03 08:05:24;;;;;;;8.00;2.40;;;26.00;92.90;;;;;;4957809;28;20184;-88
2022/08/03 08:07:50;;;;;;;5.13;2.20;;;26.00;92.50;;;;;;4940493;29;20219;-89
2022/08/03 08:10:18;;;;;;;2.50;1.98;;;26.00;92.50;;;;;;4938620;29;20174;-88
2022/08/03 08:12:44;;;;;;;5.55;2.40;;;26.10;92.30;;;;;;4938195;29;20189;-89
2022/08/03 08:15:10;;;;;;;5.35;1.92;;;26.10;92.40;;;;;;4937506;29;20173;-88
2022/08/03 08:17:47;;;;;;;4.57;2.03;;;26.20;92.60;;;;;;4937521;29;20260;-89
2022/08/03 08:20:19;;;;;;;3.17;2.20;;;26.40;92.30;;;;;;4937412;29;20272;-88
2022/08/03 08:22:44;;;;;;;2.10;1.70;;;26.40;92.30;;;;;;4946913;28;20195;-89
2022/08/03 08:25:10;;;;;;;3.17;1.90;;;26.60;92.20;;;;;;4956211;28;20180;-89
2022/08/03 08:27:46;;;;;;;2.17;1.70;;;26.60;91.70;;;;;;4955074;28;20216;-88
2022/08/03 08:30:14;;;;;;;2.50;1.58;;;26.70;92.50;;;;;;4955890;28;20235;-90
2022/08/03 08:32:40;;;;;;;2.75;1.60;;;26.70;91.40;;;;;;4954904;28;20189;-88
2022/08/03 08:35:07;;;;;;;2.33;1.70;;;26.70;91.20;;;;;;4943962;28;20597;-88
2022/08/03 08:37:33;;;;;;;1.73;1.30;;;26.80;92.10;;;;;;4955745;28;20219;-88
2022/08/03 08:39:59;;;;;;;4.53;1.48;;;27.00;91.40;;;;;;4955951;28;20173;-88
2022/08/03 08:42:25;;;;;;;2.17;1.48;;;27.10;91.50;;;;;;4972505;28;20185;-88
2022/08/03 08:44:51;;;;;;;2.42;1.45;;;27.30;91.20;;;;;;4972895;28;20227;-89
2022/08/03 08:47:24;;;;;;;3.28;1.42;;;27.40;91.20;;;;;;4955508;28;20227;-88
2022/08/03 08:49:53;;;;;;;2.88;1.60;;;27.50;91.10;;;;;;4955730;28;20204;-88
2022/08/03 08:52:25;;;;;;;3.28;1.33;;;27.70;90.70;;;;;;4955472;28;20176;-88
2022/08/03 08:55:02;;;;;;;1.33;1.17;;;27.80;92.00;;;;;;4965659;28;20173;-88
2022/08/03 08:57:37;;;;;;;2.90;1.00;;;27.90;90.30;;;;;;4936134;28;20356;-89
2022/08/03 09:00:13;;;;;;;4.68;1.00;;;28.10;90.40;;;;;;4955422;28;20655;-89
2022/08/03 09:02:43;;;;;;;3.75;1.40;;;28.20;90.80;;;;;;4955269;28;20299;-88
2022/08/03 09:05:14;;;;;;;1.50;1.08;;;28.30;89.30;;;;;;4956307;28;20644;-89
2022/08/03 09:07:44;;;;;;;2.78;1.00;;;28.40;90.00;;;;;;4955646;28;20223;-87
2022/08/03 09:10:12;;;;;;;3.13;1.15;;;28.50;89.80;;;;;;4943078;29;20181;-89
2022/08/03 09:12:49;;;;;;;4.63;1.30;;;28.50;90.20;;;;;;4936546;29;20268;-90
2022/08/03 09:15:20;;;;;;;1.70;1.10;;;28.50;88.50;;;;;;4936915;29;20169;-90
2022/08/03 09:17:47;;;;;;;1.80;1.20;;;28.50;88.60;;;;;;4936526;29;20213;-88
2022/08/03 09:20:13;;;;;;;2.95;1.13;;;28.60;88.70;;;;;;4937406;28;20260;-89
2022/08/03 09:22:57;;;;;;;1.98;1.38;;;28.60;88.50;;;;;;4972927;28;20278;-88
2022/08/03 09:25:37;;;;;;;1.85;1.30;;;28.60;87.80;;;;;;4955574;28;20284;-88
2022/08/03 09:28:15;;;;;;;5.88;1.35;;;28.70;88.90;;;;;;4954900;28;20211;-88
2022/08/03 09:31:00;;;;;;;3.95;1.27;;;28.80;88.00;;;;;;4955322;28;20173;-89
2022/08/03 09:33:25;;;;;;;2.45;1.30;;;28.90;88.20;;;;;;4935854;29;20173;-88
2022/08/03 09:35:55;;;;;;;2.67;1.35;;;29.00;87.00;;;;;;4944828;28;20621;-88
2022/08/03 09:38:24;;;;;;;5.10;1.25;;;29.10;88.70;;;;;;4954836;28;20196;-88
2022/08/03 09:40:51;;;;;;;2.33;1.27;;;29.30;86.10;;;;;;4955210;28;20180;-88
2022/08/03 09:43:17;;;;;;;4.05;1.50;;;29.40;85.90;;;;;;4955089;28;20259;-88
2022/08/03 09:45:43;;;;;;;3.45;1.52;;;29.50;86.10;;;;;;4972792;28;20160;-87
2022/08/03 09:48:30;;;;;;;2.03;1.35;;;29.70;86.30;;;;;;4955549;28;20216;-88
2022/08/03 09:51:02;;;;;;;1.20;1.10;;;29.80;85.20;;;;;;4939671;28;20191;-89
2022/08/03 09:53:28;;;;;;;1.90;1.42;;;29.80;85.40;;;;;;4955601;28;20206;-89
2022/08/03 09:55:59;;;;;;;7.28;1.40;;;29.80;84.70;;;;;;4955203;28;20179;-88
2022/08/03 09:58:28;;;;;;;1.60;1.38;;;29.90;84.70;;;;;;4955660;28;20199;-89
2022/08/03 10:01:04;;;;;;;1.30;1.20;;;30.00;84.60;;;;;;4955657;28;20176;-88
2022/08/03 10:03:33;;;;;;;1.50;1.33;;;29.90;84.30;;;;;;4955133;28;20176;-89
2022/08/03 10:06:21;;;;;;;2.90;1.30;;;30.00;85.70;;;;;;4954955;28;20187;-88
2022/08/03 10:09:14;;;;;;;1.25;1.10;;;30.00;84.90;;;;;;4974013;28;20541;-89
2022/08/03 10:11:41;;;;;;;1.58;1.25;;;30.00;84.10;;;;;;4969816;28;20183;-87
2022/08/03 10:14:10;;;;;;;1.30;1.20;;;30.00;84.10;;;;;;4964046;28;20743;-87
2022/08/03 10:16:39;;;;;;;2.17;1.40;;;30.10;84.30;;;;;;4969906;28;20219;-87
2022/08/03 10:19:06;;;;;;;2.70;1.17;;;30.30;84.30;;;;;;4972437;28;20203;-89
2022/08/03 10:21:39;;;;;;;3.88;1.48;;;30.30;84.10;;;;;;4972032;28;20663;-87
2022/08/03 10:24:06;;;;;;;2.00;1.10;;;30.40;84.10;;;;;;4991857;28;20615;-88
2022/08/03 10:26:37;;;;;;;3.35;1.40;;;30.30;83.70;;;;;;4959935;28;20271;-90
2022/08/03 10:29:07;;;;;;;2.35;1.50;;;30.30;84.20;;;;;;4954947;28;20199;-86
2022/08/03 10:31:40;;;;;;;3.13;1.45;;;30.30;84.70;;;;;;4964839;28;20177;-87
2022/08/03 10:34:14;;;;;;;3.55;1.13;;;30.40;85.00;;;;;;4953221;28;20223;-88
2022/08/03 10:36:40;;;;;;;3.95;1.45;;;30.50;83.70;;;;;;4954104;28;20214;-88
2022/08/03 10:39:06;;;;;;;1.27;1.17;;;30.60;84.30;;;;;;4937129;29;20189;-87
2022/08/03 10:41:37;;;;;;;2.10;1.50;;;30.80;84.30;;;;;;4935359;29;20629;-88
2022/08/03 10:44:07;;;;;;;3.38;1.63;;;30.90;84.40;;;;;;4931700;29;20252;-87
2022/08/03 10:46:35;;;;;;;2.13;1.30;;;31.00;82.10;;;;;;4933520;29;20269;-87
2022/08/03 10:49:01;;;;;;;2.08;1.30;;;31.10;83.10;;;;;;4932977;29;20181;-89
2022/08/03 10:51:30;;;;;;;2.22;1.30;;;31.10;81.40;;;;;;4934138;29;20165;-88
2022/08/03 10:53:58;;;;;;;1.08;0.98;;;31.20;81.10;;;;;;4935761;29;20243;-87
2022/08/03 10:59:49;;;;;;;1.65;1.20;;;31.20;82.10;;;;;;4938181;29;20220;-89
2022/08/03 11:02:16;;;;;;;1.70;1.33;;;31.20;81.20;;;;;;4935909;29;20173;-90
2022/08/03 11:04:44;;;;;;;2.90;1.38;;;31.20;81.60;;;;;;4935122;29;20587;-88
2022/08/03 11:07:23;;;;;;;3.80;1.20;;;31.50;82.50;;;;;;4935477;29;20213;-89
2022/08/03 11:09:53;;;;;;;1.55;1.20;;;31.50;81.20;;;;;;4936089;29;20184;-88
2022/08/03 11:12:28;;;;;;;2.60;1.45;;;31.50;80.80;;;;;;4936919;29;20162;-91
2022/08/03 11:14:56;;;;;;;2.13;1.45;;;31.50;83.10;;;;;;4936214;29;20585;-88
2022/08/03 11:17:24;;;;;;;1.13;1.02;;;31.60;81.20;;;;;;4935607;29;20209;-89
2022/08/03 11:19:52;;;;;;;2.75;1.35;;;31.60;80.30;;;;;;4934751;29;20189;-88
2022/08/03 11:22:19;;;;;;;3.53;1.20;;;31.60;80.60;;;;;;4934795;29;20185;-88
2022/08/03 11:24:52;;;;;;;1.70;1.40;;;31.60;80.80;;;;;;4935789;29;20196;-87
2022/08/03 11:27:24;;;;;;;4.30;1.40;;;31.50;79.70;;;;;;4936196;29;20209;-91
2022/08/03 11:30:04;;;;;;;2.05;1.23;;;31.60;80.10;;;;;;4936549;29;20181;-87
2022/08/03 11:32:36;;;;;;;2.35;1.42;;;31.70;80.90;;;;;;4935449;29;20251;-88
2022/08/03 11:35:12;;;;;;;3.17;1.60;;;31.90;80.30;;;;;;4935113;29;20173;-89
2022/08/03 11:38:04;;;;;;;2.28;1.40;;;32.00;79.30;;;;;;4936730;29;20276;-88
2022/08/03 11:40:34;;;;;;;3.13;1.42;;;32.10;78.80;;;;;;4927452;29;20331;-87
2022/08/03 11:43:00;;;;;;;2.45;1.30;;;32.00;77.70;;;;;;4936209;29;20192;-89
2022/08/03 11:45:26;;;;;;;1.98;1.40;;;32.00;78.90;;;;;;4938541;29;20176;-88
2022/08/03 11:47:54;;;;;;;1.52;1.10;;;32.00;79.60;;;;;;4946479;29;20230;-88
2022/08/03 11:50:21;;;;;;;3.55;1.30;;;32.00;78.70;;;;;;4943686;28;20175;-87
2022/08/03 11:52:47;;;;;;;2.10;1.25;;;32.10;79.30;;;;;;4956977;28;20192;-89
2022/08/03 11:55:15;;;;;;;2.20;1.30;;;32.20;78.40;;;;;;4956431;28;20614;-88
2022/08/03 11:57:42;;;;;;;1.10;1.00;;;32.30;79.60;;;;;;4956532;28;20302;-88
2022/08/03 12:00:29;;;;;;;3.70;1.25;;;32.30;77.70;;;;;;4956874;28;20180;-88
2022/08/03 12:03:11;;;;;;;1.30;0.90;;;32.40;78.00;;;;;;4959081;28;20181;-88
2022/08/03 12:05:43;;;;;;;1.67;1.20;;;32.50;77.40;;;;;;4964296;28;20192;-87
2022/08/03 12:08:11;;;;;;;1.73;1.08;;;32.60;75.50;;;;;;4937662;29;20246;-89
2022/08/03 12:10:38;;;;;;;3.80;1.13;;;32.60;76.10;;;;;;4947615;29;20224;-88
2022/08/03 12:13:07;;;;;;;2.67;1.40;;;32.50;76.90;;;;;;4941177;28;20179;-87
2022/08/03 12:15:34;;;;;;;4.57;1.40;;;32.50;77.80;;;;;;4947225;29;20661;-88
2022/08/03 12:18:00;;;;;;;1.67;1.10;;;32.40;78.10;;;;;;4957650;28;20205;-87
2022/08/03 12:20:28;;;;;;;1.30;1.10;;;32.40;79.70;;;;;;4973897;28;20183;-89
2022/08/03 12:23:00;;;;;;;3.20;1.10;;;32.50;77.70;;;;;;4956719;28;20212;-89
2022/08/03 12:25:26;;;;;;;5.65;1.35;;;32.50;77.40;;;;;;4956957;28;20187;-89
2022/08/03 12:28:04;;;;;;;1.83;1.60;;;32.60;77.90;;;;;;4956917;28;20220;-89
2022/08/03 12:30:30;;;;;;;1.55;1.17;;;32.60;77.60;;;;;;4957022;28;20231;-88
2022/08/03 12:32:56;;;;;;;1.52;1.20;;;32.50;76.10;;;;;;4957062;28;20187;-89
2022/08/03 12:35:23;;;;;;;1.27;1.10;;;32.50;77.50;;;;;;4956547;28;20687;-88
2022/08/03 12:37:50;;;;;;;1.98;1.30;;;32.50;76.80;;;;;;4946565;28;20809;-87
2022/08/03 12:40:25;;;;;;;2.45;1.08;;;32.50;76.90;;;;;;4937604;29;20292;-88
2022/08/03 12:42:51;;;;;;;1.38;1.23;;;32.40;78.10;;;;;;4937586;29;20187;-88
2022/08/03 12:45:25;;;;;;;2.28;1.33;;;32.40;77.20;;;;;;4941304;28;20224;-88
2022/08/03 12:47:59;;;;;;;2.10;1.13;;;32.40;77.50;;;;;;4946451;29;20208;-90
2022/08/03 12:50:36;;;;;;;3.28;1.27;;;32.50;77.00;;;;;;4947217;28;20238;-88
2022/08/03 12:53:04;;;;;;;1.73;1.15;;;32.60;76.70;;;;;;4973400;28;20164;-87
2022/08/03 12:55:34;;;;;;;1.38;1.20;;;32.80;75.70;;;;;;4938789;29;20210;-88
2022/08/03 12:58:01;;;;;;;1.33;1.20;;;32.90;76.10;;;;;;4948589;28;20210;-88
2022/08/03 13:00:29;;;;;;;2.47;1.35;;;33.00;76.20;;;;;;4956604;28;20180;-89
2022/08/03 13:03:03;;;;;;;2.03;1.20;;;32.90;75.90;;;;;;4955962;28;20172;-88
2022/08/03 13:05:29;;;;;;;1.77;1.00;;;33.00;75.60;;;;;;4955942;28;20195;-88
2022/08/03 13:07:55;;;;;;;1.75;1.30;;;33.10;76.10;;;;;;4972850;28;20593;-88